Time;durP1;ratioP1;P1;durP2;ratioP2;P2;SDS_P1;SDS_P2;PMS_P1;PMS_P2;Temp;Humidity;BMP_temperature;BMP_pressure;BME280_temperature;BME280_humidity;BME280_pressure;Samples;Min_cycle;Max_cycle;Signal;HPM_P1;HPM_P2
2021/07/17 00:01:48;;;;;;;32.45;27.77;;;21.90;99.90;;;;;;5313099;27;20529;-69
2021/07/17 00:04:20;;;;;;;33.67;27.83;;;22.00;99.90;;;;;;5316732;27;20211;-69
2021/07/17 00:06:55;;;;;;;38.92;30.27;;;22.00;99.90;;;;;;5334628;27;20226;-69
2021/07/17 00:09:29;;;;;;;36.83;28.42;;;22.00;99.90;;;;;;5327225;27;20236;-67
2021/07/17 00:12:03;;;;;;;36.17;28.55;;;22.00;99.90;;;;;;5329619;27;20562;-72
2021/07/17 00:14:35;;;;;;;33.10;26.65;;;22.10;99.90;;;;;;5325940;27;20214;-70
2021/07/17 00:17:07;;;;;;;33.47;27.42;;;22.10;99.90;;;;;;5327467;27;20230;-67
2021/07/17 00:19:40;;;;;;;36.50;30.02;;;22.10;99.90;;;;;;5317840;27;20198;-67
2021/07/17 00:22:15;;;;;;;38.78;30.58;;;22.20;99.90;;;;;;5328357;27;20610;-69
2021/07/17 00:24:47;;;;;;;39.67;31.55;;;22.20;99.90;;;;;;5324002;27;20221;-70
2021/07/17 00:27:19;;;;;;;37.78;30.00;;;22.20;99.90;;;;;;5298099;27;20227;-69
2021/07/17 00:29:51;;;;;;;39.72;30.08;;;22.20;99.90;;;;;;5289936;28;20200;-67
2021/07/17 00:32:23;;;;;;;39.30;31.17;;;22.20;99.90;;;;;;5306320;27;20278;-67
2021/07/17 00:34:55;;;;;;;41.17;32.60;;;22.20;99.90;;;;;;5322765;27;20202;-70
2021/07/17 00:37:27;;;;;;;44.38;32.42;;;22.30;99.90;;;;;;5328456;27;20222;-66
2021/07/17 00:40:00;;;;;;;45.30;33.08;;;22.30;99.90;;;;;;5333906;27;20210;-68
2021/07/17 00:42:34;;;;;;;38.47;31.15;;;22.30;99.90;;;;;;5334057;27;20233;-68
2021/07/17 00:45:06;;;;;;;40.05;31.45;;;22.30;99.90;;;;;;5333383;27;20202;-69
2021/07/17 00:47:38;;;;;;;38.95;32.95;;;22.30;99.90;;;;;;5334385;27;20226;-68
2021/07/17 00:50:15;;;;;;;39.72;32.83;;;22.30;99.90;;;;;;5334648;27;20202;-65
2021/07/17 00:52:47;;;;;;;39.38;33.50;;;22.30;99.90;;;;;;5334450;27;20226;-68
2021/07/17 00:55:22;;;;;;;40.80;32.20;;;22.30;99.90;;;;;;5333455;27;20597;-68
2021/07/17 00:57:55;;;;;;;38.22;31.08;;;22.30;99.90;;;;;;5334209;27;20232;-65
2021/07/17 01:00:30;;;;;;;37.20;30.67;;;22.30;99.90;;;;;;5334176;27;20194;-67
2021/07/17 01:03:07;;;;;;;41.50;32.72;;;22.30;99.90;;;;;;5334583;27;20524;-70
2021/07/17 01:05:42;;;;;;;36.28;31.33;;;22.30;99.90;;;;;;5333322;27;20190;-67
2021/07/17 01:08:19;;;;;;;40.40;32.60;;;22.30;99.90;;;;;;5332995;27;20229;-69
2021/07/17 01:10:52;;;;;;;37.90;32.13;;;22.20;99.90;;;;;;5334049;27;20633;-70
2021/07/17 01:13:23;;;;;;;40.70;31.08;;;22.20;99.90;;;;;;5333389;27;20222;-66
2021/07/17 01:15:56;;;;;;;37.13;29.23;;;22.20;99.90;;;;;;5334188;27;20209;-71
2021/07/17 01:18:28;;;;;;;34.75;30.52;;;22.20;99.90;;;;;;5334175;27;20233;-70
2021/07/17 01:21:02;;;;;;;35.22;30.20;;;22.20;99.90;;;;;;5333882;27;20198;-66
2021/07/17 01:23:34;;;;;;;37.28;31.27;;;22.20;99.90;;;;;;5333535;27;20241;-67
2021/07/17 01:26:06;;;;;;;43.92;32.30;;;22.20;99.90;;;;;;5333989;27;20198;-67
2021/07/17 01:28:39;;;;;;;38.92;31.13;;;22.20;99.90;;;;;;5334465;27;20644;-67
2021/07/17 01:31:15;;;;;;;37.58;30.80;;;22.20;99.90;;;;;;5335225;27;20221;-70
2021/07/17 01:33:47;;;;;;;36.35;29.52;;;22.20;99.90;;;;;;5316120;27;20729;-71
2021/07/17 01:36:20;;;;;;;34.30;29.67;;;22.20;99.90;;;;;;5334081;27;20249;-68
2021/07/17 01:38:52;;;;;;;38.97;31.52;;;22.20;99.90;;;;;;5332301;27;20233;-69
2021/07/17 01:41:24;;;;;;;40.30;31.48;;;22.20;99.90;;;;;;5333278;27;20579;-68
2021/07/17 01:43:57;;;;;;;32.97;29.27;;;22.20;99.90;;;;;;5334262;27;20589;-68
2021/07/17 01:46:30;;;;;;;33.65;28.40;;;22.20;99.90;;;;;;5316380;27;20198;-66
2021/07/17 01:49:02;;;;;;;38.78;31.55;;;22.20;99.90;;;;;;5333884;27;20312;-66
2021/07/17 01:51:34;;;;;;;37.17;30.85;;;22.20;99.90;;;;;;5332515;27;20194;-67
2021/07/17 01:54:09;;;;;;;40.67;30.35;;;22.20;99.90;;;;;;5333434;27;20236;-67
2021/07/17 01:56:41;;;;;;;38.83;30.70;;;22.30;99.90;;;;;;5332977;27;20608;-69
2021/07/17 01:59:13;;;;;;;39.92;31.30;;;22.20;99.90;;;;;;5332673;27;20304;-67
2021/07/17 02:01:45;;;;;;;40.67;31.83;;;22.30;99.90;;;;;;5333331;27;20193;-67
2021/07/17 02:04:18;;;;;;;38.28;30.85;;;22.30;99.90;;;;;;5334166;27;20234;-67
2021/07/17 02:06:54;;;;;;;40.22;31.52;;;22.20;99.90;;;;;;5334256;27;20187;-65
2021/07/17 02:09:27;;;;;;;40.72;31.00;;;22.30;99.90;;;;;;5317979;27;20676;-67
2021/07/17 02:12:00;;;;;;;35.88;30.63;;;22.30;99.90;;;;;;5335672;27;20254;-69
2021/07/17 02:14:38;;;;;;;37.83;31.60;;;22.30;99.90;;;;;;5334822;27;20543;-67
2021/07/17 02:17:09;;;;;;;40.67;31.30;;;22.30;99.90;;;;;;5334207;27;20198;-69
2021/07/17 02:19:42;;;;;;;35.90;30.65;;;22.30;99.90;;;;;;5332812;27;20238;-71
2021/07/17 02:22:14;;;;;;;33.55;29.40;;;22.30;99.90;;;;;;5332352;27;20190;-69
2021/07/17 02:24:47;;;;;;;37.95;30.63;;;22.30;99.90;;;;;;5333805;27;20236;-67
2021/07/17 02:27:21;;;;;;;37.45;29.95;;;22.30;99.90;;;;;;5337794;27;20464;-67
2021/07/17 02:29:53;;;;;;;41.80;31.70;;;22.30;99.90;;;;;;5318895;27;20284;-70
2021/07/17 02:32:27;;;;;;;38.33;31.92;;;22.30;99.90;;;;;;5337397;27;20243;-66
2021/07/17 02:34:59;;;;;;;36.50;28.90;;;22.30;99.90;;;;;;5337178;27;20203;-67
2021/07/17 02:37:31;;;;;;;37.25;31.15;;;22.20;99.90;;;;;;5337298;27;20194;-65
2021/07/17 02:40:07;;;;;;;35.22;29.60;;;22.30;99.90;;;;;;5336753;27;20213;-65
2021/07/17 02:42:39;;;;;;;39.97;31.10;;;22.30;99.90;;;;;;5337316;27;20209;-67
2021/07/17 02:45:12;;;;;;;34.25;29.52;;;22.30;99.90;;;;;;5336263;27;20222;-64
2021/07/17 02:47:44;;;;;;;33.88;28.92;;;22.30;99.90;;;;;;5336149;27;20511;-66
2021/07/17 02:50:17;;;;;;;35.45;30.73;;;22.20;99.90;;;;;;5336325;27;20225;-67
2021/07/17 02:52:51;;;;;;;34.78;29.85;;;22.30;99.90;;;;;;5336917;27;20194;-65
2021/07/17 02:55:26;;;;;;;35.70;29.60;;;22.20;99.90;;;;;;5337007;27;20277;-65
2021/07/17 02:57:58;;;;;;;34.47;30.15;;;22.20;99.90;;;;;;5337344;27;20258;-66
2021/07/17 03:00:33;;;;;;;35.45;28.92;;;22.20;99.90;;;;;;5335651;27;20209;-66
2021/07/17 03:03:13;;;;;;;36.85;28.98;;;22.20;99.90;;;;;;5337152;27;20694;-68
2021/07/17 03:05:45;;;;;;;38.30;30.30;;;22.20;99.90;;;;;;5336971;27;20616;-66
2021/07/17 03:08:22;;;;;;;37.22;30.65;;;22.20;99.90;;;;;;5335990;27;20527;-67
2021/07/17 03:10:56;;;;;;;37.85;31.27;;;22.20;99.90;;;;;;5336467;27;20261;-66
2021/07/17 03:13:28;;;;;;;37.40;30.50;;;22.10;99.90;;;;;;5336680;27;20510;-67
2021/07/17 03:16:00;;;;;;;41.38;31.08;;;22.10;99.90;;;;;;5318384;27;20263;-67
2021/07/17 03:18:32;;;;;;;37.13;30.23;;;22.10;99.90;;;;;;5336939;27;20229;-67
2021/07/17 03:21:05;;;;;;;42.03;31.73;;;22.10;99.90;;;;;;5335416;27;20198;-65
2021/07/17 03:23:37;;;;;;;40.10;30.48;;;22.10;99.90;;;;;;5336336;27;20226;-65
2021/07/17 03:26:09;;;;;;;39.78;31.42;;;22.10;99.90;;;;;;5336840;27;20502;-66
2021/07/17 03:28:41;;;;;;;38.72;31.08;;;22.10;99.90;;;;;;5318207;27;20213;-68
2021/07/17 03:31:13;;;;;;;40.55;30.23;;;22.10;99.90;;;;;;5318273;27;20586;-66
2021/07/17 03:33:47;;;;;;;36.65;30.38;;;22.10;99.90;;;;;;5337033;27;20640;-66
2021/07/17 03:36:20;;;;;;;39.75;30.02;;;22.10;99.90;;;;;;5318378;27;20208;-67
2021/07/17 03:38:52;;;;;;;37.35;30.50;;;22.10;99.90;;;;;;5335558;27;20579;-68
2021/07/17 03:41:26;;;;;;;37.10;29.73;;;22.10;99.90;;;;;;5336068;27;20202;-66
2021/07/17 03:43:58;;;;;;;35.22;28.90;;;22.10;99.90;;;;;;5335510;27;20248;-65
2021/07/17 03:46:31;;;;;;;38.95;29.35;;;22.00;99.90;;;;;;5336185;27;20253;-69
2021/07/17 03:49:03;;;;;;;34.10;27.73;;;22.10;99.90;;;;;;5336383;27;20214;-68
2021/07/17 03:51:37;;;;;;;33.65;27.10;;;22.10;99.90;;;;;;5336208;27;20220;-67
2021/07/17 03:54:10;;;;;;;32.53;27.38;;;22.10;99.90;;;;;;5335300;27;20212;-67
2021/07/17 03:56:43;;;;;;;33.63;26.58;;;22.10;99.90;;;;;;5334993;27;20280;-67
2021/07/17 03:59:14;;;;;;;35.72;27.38;;;22.10;99.90;;;;;;5336412;27;20287;-68
2021/07/17 04:01:46;;;;;;;33.05;27.30;;;22.00;99.90;;;;;;5335958;27;20523;-68
2021/07/17 04:04:19;;;;;;;36.50;27.77;;;22.10;99.90;;;;;;5300321;27;20321;-67
2021/07/17 04:06:53;;;;;;;32.72;25.88;;;22.10;99.90;;;;;;5335157;27;20197;-68
2021/07/17 04:09:25;;;;;;;29.20;25.83;;;22.10;99.90;;;;;;5333988;27;20230;-67
2021/07/17 04:12:00;;;;;;;34.45;25.65;;;22.10;99.90;;;;;;5334283;27;20186;-67
2021/07/17 04:14:32;;;;;;;29.60;26.23;;;22.10;99.90;;;;;;5334344;27;20258;-68
2021/07/17 04:17:04;;;;;;;28.77;24.40;;;22.10;99.90;;;;;;5335099;27;20304;-70
2021/07/17 04:19:36;;;;;;;32.47;24.63;;;22.10;99.90;;;;;;5317027;27;20212;-67
2021/07/17 04:22:08;;;;;;;28.67;22.70;;;22.20;99.90;;;;;;5335875;27;20213;-67
2021/07/17 04:24:40;;;;;;;26.27;20.42;;;22.30;99.90;;;;;;5335423;27;20234;-67
2021/07/17 04:27:12;;;;;;;25.05;20.10;;;22.30;99.90;;;;;;5333884;27;20202;-67
2021/07/17 04:29:49;;;;;;;23.65;18.90;;;22.30;99.90;;;;;;5333828;27;20543;-66
2021/07/17 04:32:23;;;;;;;25.27;18.98;;;22.40;99.90;;;;;;5335085;27;20197;-67
2021/07/17 04:34:57;;;;;;;22.17;18.45;;;22.50;99.90;;;;;;5334688;27;20225;-69
2021/07/17 04:37:32;;;;;;;21.13;17.50;;;22.50;99.90;;;;;;5335156;27;20209;-66
2021/07/17 04:40:05;;;;;;;24.35;17.10;;;22.60;99.90;;;;;;5334410;27;20373;-67
2021/07/17 04:42:37;;;;;;;22.15;17.23;;;22.60;99.90;;;;;;5316490;27;20202;-69
2021/07/17 04:45:09;;;;;;;19.75;15.70;;;22.60;99.90;;;;;;5333336;27;20230;-67
2021/07/17 04:47:41;;;;;;;24.58;14.75;;;22.60;99.90;;;;;;5316206;27;20205;-65
2021/07/17 04:50:14;;;;;;;24.02;15.38;;;22.60;99.90;;;;;;5334040;27;20222;-69
2021/07/17 04:52:46;;;;;;;20.33;14.43;;;22.70;99.90;;;;;;5334788;27;20198;-66
2021/07/17 04:55:18;;;;;;;19.75;14.45;;;22.70;99.90;;;;;;5335328;27;20254;-64
2021/07/17 04:57:49;;;;;;;18.90;14.07;;;22.70;99.90;;;;;;5334796;27;20202;-67
2021/07/17 05:00:22;;;;;;;17.88;13.68;;;22.70;99.90;;;;;;5335216;27;20607;-68
2021/07/17 05:02:55;;;;;;;18.27;12.48;;;22.80;99.90;;;;;;5334056;27;20648;-67
2021/07/17 05:05:30;;;;;;;15.50;11.27;;;22.80;99.90;;;;;;5334924;27;20244;-69
2021/07/17 05:08:06;;;;;;;17.65;11.55;;;22.90;99.90;;;;;;5317185;27;20476;-69
2021/07/17 05:10:37;;;;;;;20.80;10.82;;;22.90;99.90;;;;;;5316136;27;20541;-67
2021/07/17 05:13:13;;;;;;;14.60;10.02;;;22.90;99.90;;;;;;5316130;27;20308;-70
2021/07/17 05:15:48;;;;;;;16.05;10.40;;;22.90;99.90;;;;;;5333829;27;20229;-66
2021/07/17 05:18:22;;;;;;;15.13;10.50;;;22.90;99.90;;;;;;5334355;27;20202;-69
2021/07/17 05:20:54;;;;;;;14.38;10.43;;;22.90;99.90;;;;;;5334247;27;20640;-68
2021/07/17 05:23:26;;;;;;;15.80;10.50;;;22.80;99.90;;;;;;5333351;27;20206;-67
2021/07/17 05:26:01;;;;;;;15.68;9.70;;;22.70;99.90;;;;;;5334192;27;20649;-67
2021/07/17 05:28:36;;;;;;;16.98;10.27;;;22.70;99.90;;;;;;5333763;27;20213;-67
2021/07/17 05:31:07;;;;;;;15.48;10.60;;;22.70;99.90;;;;;;5333940;27;20222;-68
2021/07/17 05:33:42;;;;;;;15.25;10.38;;;22.70;99.90;;;;;;5334278;27;20566;-68
2021/07/17 05:36:14;;;;;;;18.90;10.40;;;22.70;99.90;;;;;;5332567;27;20228;-67
2021/07/17 05:38:46;;;;;;;17.30;10.50;;;22.60;99.90;;;;;;5333856;27;20212;-65
2021/07/17 05:41:18;;;;;;;13.82;9.60;;;22.60;99.90;;;;;;5333565;27;20222;-66
2021/07/17 05:43:50;;;;;;;15.35;10.20;;;22.70;99.90;;;;;;5332899;27;20202;-66
2021/07/17 05:46:24;;;;;;;12.43;9.32;;;22.70;99.90;;;;;;5333738;27;20222;-67
2021/07/17 05:48:58;;;;;;;13.77;9.70;;;22.80;99.90;;;;;;5333825;27;20559;-68
2021/07/17 05:51:30;;;;;;;15.73;10.35;;;22.80;99.90;;;;;;5333418;27;20229;-69
2021/07/17 05:54:02;;;;;;;15.60;10.05;;;22.80;99.90;;;;;;5333631;27;20198;-68
2021/07/17 05:56:36;;;;;;;16.40;9.10;;;22.90;99.90;;;;;;5315900;27;20537;-68
2021/07/17 05:59:08;;;;;;;15.40;9.65;;;23.00;99.90;;;;;;5333789;27;20193;-68
2021/07/17 06:01:40;;;;;;;15.55;9.07;;;23.10;99.90;;;;;;5337183;27;20278;-71
2021/07/17 06:04:13;;;;;;;15.93;9.68;;;23.10;99.90;;;;;;5320461;27;20206;-72
2021/07/17 06:06:46;;;;;;;14.65;9.63;;;23.10;99.90;;;;;;5337101;27;20269;-72
2021/07/17 06:09:18;;;;;;;13.57;8.88;;;23.10;99.90;;;;;;5338362;27;20322;-74
2021/07/17 06:11:50;;;;;;;13.00;8.93;;;23.30;99.90;;;;;;5338014;27;20229;-71
2021/07/17 06:14:23;;;;;;;14.90;9.23;;;23.50;99.90;;;;;;5338373;27;20212;-70
2021/07/17 06:16:55;;;;;;;12.05;7.70;;;23.80;99.90;;;;;;5337270;27;20225;-70
2021/07/17 06:19:27;;;;;;;14.68;8.32;;;24.40;99.90;;;;;;5337172;27;20198;-70
2021/07/17 06:22:01;;;;;;;16.42;8.57;;;24.80;99.90;;;;;;5336823;27;20226;-71
2021/07/17 06:24:33;;;;;;;10.52;7.68;;;24.90;99.90;;;;;;5337197;27;20252;-69
2021/07/17 06:27:08;;;;;;;9.32;6.72;;;25.30;99.90;;;;;;5338040;27;20226;-69
2021/07/17 06:29:40;;;;;;;10.55;7.13;;;25.70;99.90;;;;;;5337482;27;20186;-71
2021/07/17 06:32:12;;;;;;;12.27;7.20;;;25.80;99.90;;;;;;5337722;27;20226;-72
2021/07/17 06:34:44;;;;;;;10.50;7.00;;;25.60;99.90;;;;;;5338014;27;20511;-71
2021/07/17 06:37:18;;;;;;;10.05;7.30;;;25.20;99.90;;;;;;5337302;27;20239;-71
2021/07/17 06:39:50;;;;;;;12.13;6.95;;;24.90;99.90;;;;;;5336828;27;20190;-70
2021/07/17 06:42:22;;;;;;;11.68;7.55;;;24.90;99.90;;;;;;5302624;27;20649;-73
2021/07/17 06:44:55;;;;;;;14.38;7.70;;;25.40;99.90;;;;;;5337794;27;20222;-71
2021/07/17 06:47:30;;;;;;;9.57;6.82;;;25.80;99.90;;;;;;5337609;27;20213;-73
2021/07/17 06:50:04;;;;;;;12.48;7.75;;;26.00;99.90;;;;;;5321149;27;20198;-74
2021/07/17 06:52:36;;;;;;;10.68;7.55;;;25.80;99.90;;;;;;5319333;27;20228;-70
2021/07/17 06:55:10;;;;;;;11.57;7.20;;;25.80;99.90;;;;;;5337157;27;20204;-70
2021/07/17 06:57:47;;;;;;;9.77;7.00;;;26.20;99.90;;;;;;5335875;27;20238;-74
2021/07/17 07:00:19;;;;;;;9.88;7.00;;;26.30;99.90;;;;;;5336218;27;20217;-70
2021/07/17 07:02:53;;;;;;;10.00;7.30;;;26.20;99.90;;;;;;5319290;27;20206;-72
2021/07/17 07:05:29;;;;;;;11.75;7.57;;;26.00;99.90;;;;;;5336108;27;20305;-72
2021/07/17 07:08:03;;;;;;;12.15;7.68;;;26.10;99.90;;;;;;5335665;27;20224;-69
2021/07/17 07:10:36;;;;;;;11.43;7.32;;;26.40;99.90;;;;;;5337058;27;20539;-70
2021/07/17 07:13:12;;;;;;;16.90;8.38;;;26.20;99.90;;;;;;5336415;27;20205;-73
2021/07/17 07:15:45;;;;;;;10.23;7.75;;;25.70;99.90;;;;;;5338130;27;20198;-72
2021/07/17 07:18:17;;;;;;;15.25;8.85;;;25.40;99.90;;;;;;5337346;27;20198;-73
2021/07/17 07:20:49;;;;;;;9.98;7.90;;;25.20;99.90;;;;;;5336796;27;20202;-71
2021/07/17 07:23:21;;;;;;;14.98;9.27;;;25.10;99.90;;;;;;5337502;27;20209;-72
2021/07/17 07:25:54;;;;;;;13.93;8.55;;;25.10;99.90;;;;;;5339699;27;20225;-68
2021/07/17 07:28:26;;;;;;;11.95;9.35;;;24.90;99.90;;;;;;5336908;27;20194;-66
2021/07/17 07:30:57;;;;;;;10.88;8.85;;;24.80;99.90;;;;;;5336873;27;20186;-70
2021/07/17 07:33:29;;;;;;;17.60;10.27;;;24.50;99.90;;;;;;5336205;27;20202;-69
2021/07/17 07:36:04;;;;;;;15.65;10.68;;;24.20;99.90;;;;;;5337304;27;20209;-68
2021/07/17 07:38:36;;;;;;;15.32;9.98;;;23.90;99.90;;;;;;5337197;27;20205;-69
2021/07/17 07:41:11;;;;;;;13.50;10.60;;;23.80;99.90;;;;;;5336289;27;20241;-68
2021/07/17 07:43:46;;;;;;;13.90;10.63;;;23.80;99.90;;;;;;5336089;27;20213;-68
2021/07/17 07:46:18;;;;;;;15.48;11.20;;;23.90;99.90;;;;;;5334749;27;20244;-68
2021/07/17 07:48:50;;;;;;;13.93;11.05;;;23.90;99.90;;;;;;5336080;27;20202;-69
2021/07/17 07:51:22;;;;;;;15.70;11.05;;;23.80;99.90;;;;;;5336182;27;20220;-50
2021/07/17 07:53:54;;;;;;;20.45;11.45;;;23.90;99.90;;;;;;5335250;27;20206;-44
2021/07/17 07:56:27;;;;;;;11.50;10.30;;;23.80;99.90;;;;;;5336708;27;20206;-48
2021/07/17 07:58:59;;;;;;;15.30;11.55;;;23.80;99.90;;;;;;5317952;27;20202;-45
2021/07/17 08:01:33;;;;;;;17.85;11.48;;;23.80;99.90;;;;;;5335886;27;20213;-42
2021/07/17 08:04:05;;;;;;;14.95;10.82;;;23.80;99.90;;;;;;5336220;27;20228;-42
2021/07/17 08:06:40;;;;;;;15.63;11.07;;;23.90;99.90;;;;;;5335801;27;20233;-44
2021/07/17 08:09:11;;;;;;;13.27;10.27;;;23.90;99.90;;;;;;5334769;27;20602;-45
2021/07/17 08:11:48;;;;;;;13.13;10.40;;;23.80;99.90;;;;;;5334546;27;20237;-48
2021/07/17 08:14:21;;;;;;;12.00;10.25;;;24.00;99.90;;;;;;5335084;27;20201;-45
2021/07/17 08:17:02;;;;;;;16.25;10.55;;;24.00;99.90;;;;;;5334958;27;20213;-49
2021/07/17 08:19:36;;;;;;;12.90;10.40;;;24.00;99.90;;;;;;5334394;27;20252;-43
2021/07/17 08:22:08;;;;;;;15.98;11.77;;;24.00;99.90;;;;;;5334496;27;20205;-43
2021/07/17 08:24:41;;;;;;;16.92;11.82;;;24.00;99.90;;;;;;5335079;27;20217;-70
2021/07/17 08:27:13;;;;;;;13.77;11.52;;;23.90;99.90;;;;;;5317984;27;20514;-71
2021/07/17 08:29:47;;;;;;;13.75;11.55;;;23.80;99.90;;;;;;5335123;27;20194;-69
2021/07/17 08:32:19;;;;;;;14.70;10.80;;;23.80;99.90;;;;;;5334863;27;20202;-69
2021/07/17 08:34:52;;;;;;;14.32;11.38;;;23.70;99.90;;;;;;5334863;27;20258;-71
2021/07/17 08:37:27;;;;;;;15.07;11.00;;;23.60;99.90;;;;;;5317112;27;20207;-64
2021/07/17 08:40:05;;;;;;;21.20;12.18;;;23.60;99.90;;;;;;5334133;27;20297;-64
2021/07/17 08:42:43;;;;;;;17.15;11.05;;;23.60;99.90;;;;;;5333524;27;20205;-63
2021/07/17 08:45:15;;;;;;;16.90;11.40;;;23.60;99.90;;;;;;5333791;27;20212;-64
2021/07/17 08:47:49;;;;;;;16.88;10.90;;;23.70;99.90;;;;;;5315675;27;20194;-67
2021/07/17 08:50:24;;;;;;;15.95;11.40;;;23.80;99.90;;;;;;5324151;27;20703;-70
2021/07/17 08:53:01;;;;;;;14.00;10.52;;;23.80;99.90;;;;;;5311611;27;20194;-68
2021/07/17 08:55:36;;;;;;;15.68;11.82;;;23.90;99.90;;;;;;5312214;27;20274;-69
2021/07/17 08:58:08;;;;;;;15.88;11.48;;;24.00;99.90;;;;;;5312807;27;20561;-72
2021/07/17 09:00:43;;;;;;;16.02;11.55;;;24.00;99.90;;;;;;5313361;27;20199;-72
2021/07/17 09:03:17;;;;;;;15.60;11.48;;;24.00;99.90;;;;;;5312923;27;20213;-72
2021/07/17 09:05:50;;;;;;;15.10;11.82;;;24.10;99.90;;;;;;5311988;27;20660;-59
2021/07/17 09:08:22;;;;;;;17.65;12.25;;;24.20;99.90;;;;;;5311941;27;20213;-57
2021/07/17 09:10:55;;;;;;;17.02;11.10;;;24.30;99.90;;;;;;5312687;27;20243;-51
2021/07/17 09:13:31;;;;;;;14.70;12.07;;;24.40;99.90;;;;;;5312597;27;20199;-50
2021/07/17 09:16:08;;;;;;;15.88;11.65;;;24.50;99.90;;;;;;5312675;27;20198;-58
2021/07/17 09:18:46;;;;;;;15.48;11.30;;;24.50;99.90;;;;;;5311646;27;20591;-51
2021/07/17 09:21:38;;;;;;;16.75;11.52;;;24.30;99.90;;;;;;5312557;27;20202;-59
2021/07/17 09:24:17;;;;;;;19.33;11.40;;;24.20;99.90;;;;;;5311545;27;20202;-61
2021/07/17 09:26:58;;;;;;;14.52;11.90;;;24.30;99.90;;;;;;5312417;27;20219;-58
2021/07/17 09:29:37;;;;;;;14.43;11.68;;;24.40;99.90;;;;;;5312516;27;20198;-60
2021/07/17 09:32:18;;;;;;;15.40;12.13;;;24.40;99.90;;;;;;5312215;27;20182;-55
2021/07/17 09:34:49;;;;;;;18.60;12.40;;;24.50;99.90;;;;;;5278207;28;20201;-63
2021/07/17 09:37:23;;;;;;;18.17;12.00;;;24.60;99.90;;;;;;5312639;28;20206;-59
2021/07/17 09:39:55;;;;;;;16.15;11.77;;;24.60;99.90;;;;;;5311484;28;20210;-60
2021/07/17 09:42:27;;;;;;;13.70;11.48;;;24.60;99.90;;;;;;5311580;28;20226;-48
2021/07/17 09:44:59;;;;;;;15.30;12.68;;;24.60;99.90;;;;;;5312428;27;20199;-48
2021/07/17 09:47:30;;;;;;;18.92;12.80;;;24.60;99.90;;;;;;5311401;28;20206;-64
2021/07/17 09:50:14;;;;;;;15.82;13.18;;;24.70;99.90;;;;;;5312734;27;20194;-50
2021/07/17 09:52:46;;;;;;;19.52;12.27;;;24.80;99.90;;;;;;5312318;28;20199;-55
2021/07/17 09:55:22;;;;;;;17.75;12.38;;;25.20;99.90;;;;;;5311273;28;20206;-49
2021/07/17 09:57:54;;;;;;;19.05;13.20;;;25.40;99.90;;;;;;5294927;28;20229;-49
2021/07/17 10:00:26;;;;;;;17.25;13.82;;;25.60;99.90;;;;;;5294970;28;20606;-52
2021/07/17 10:03:02;;;;;;;16.63;14.35;;;25.80;99.90;;;;;;5311536;28;20214;-48
2021/07/17 10:05:39;;;;;;;19.40;13.07;;;26.10;99.90;;;;;;5311585;28;20503;-49
2021/07/17 10:08:13;;;;;;;15.82;11.45;;;26.00;99.90;;;;;;5311741;28;20194;-45
2021/07/17 10:11:00;;;;;;;16.05;11.85;;;26.00;99.90;;;;;;5311649;28;20234;-47
2021/07/17 10:13:34;;;;;;;14.05;11.43;;;26.10;99.90;;;;;;5310856;28;20183;-50
2021/07/17 10:16:26;;;;;;;15.23;10.77;;;26.20;99.90;;;;;;5294315;28;20673;-46
2021/07/17 10:18:58;;;;;;;12.35;10.93;;;26.20;99.90;;;;;;5312009;28;20614;-49
2021/07/17 10:21:32;;;;;;;16.85;11.18;;;26.20;99.90;;;;;;5312127;27;20665;-62
2021/07/17 10:24:05;;;;;;;15.13;11.13;;;26.10;99.90;;;;;;5310672;28;20207;-52
2021/07/17 10:26:38;;;;;;;19.02;11.32;;;26.00;99.90;;;;;;5310671;28;20242;-50
2021/07/17 10:29:16;;;;;;;15.95;10.88;;;26.10;99.90;;;;;;5311744;27;20214;-52
2021/07/17 10:31:50;;;;;;;14.27;10.70;;;25.90;99.90;;;;;;5312226;27;20335;-49
2021/07/17 10:34:25;;;;;;;16.08;10.63;;;26.00;99.90;;;;;;5312155;28;20194;-46
2021/07/17 10:37:09;;;;;;;14.23;10.50;;;26.20;99.90;;;;;;5311985;27;20285;-54
2021/07/17 10:39:55;;;;;;;14.43;10.80;;;26.10;99.90;;;;;;5311987;27;20191;-58
2021/07/17 10:42:28;;;;;;;14.13;11.15;;;26.00;99.90;;;;;;5311668;28;20202;-51
2021/07/17 10:45:01;;;;;;;15.68;12.30;;;26.10;99.90;;;;;;5311794;28;20305;-62
2021/07/17 10:47:39;;;;;;;16.13;12.02;;;26.20;99.90;;;;;;5312466;27;20234;-44
2021/07/17 10:50:17;;;;;;;19.38;11.95;;;26.30;99.90;;;;;;5314785;27;20206;-47
2021/07/17 10:52:49;;;;;;;20.08;11.90;;;26.50;99.90;;;;;;5314497;27;20193;-50
2021/07/17 10:55:30;;;;;;;15.32;10.38;;;26.50;99.90;;;;;;5314190;27;20203;-54
2021/07/17 10:58:11;;;;;;;14.30;9.82;;;26.60;99.90;;;;;;5314216;27;20218;-47
2021/07/17 11:00:48;;;;;;;15.73;9.70;;;26.40;99.90;;;;;;5316025;27;20205;-45
2021/07/17 11:03:29;;;;;;;13.43;9.60;;;26.20;99.90;;;;;;5313976;27;20274;-50
2021/07/17 11:06:22;;;;;;;13.20;10.15;;;26.20;99.90;;;;;;5314834;27;20264;-48
2021/07/17 11:08:59;;;;;;;12.52;10.15;;;26.10;99.90;;;;;;5315290;27;20629;-54
2021/07/17 11:11:36;;;;;;;16.55;11.60;;;25.90;99.90;;;;;;5313896;27;20226;-52
2021/07/17 11:14:08;;;;;;;18.35;11.45;;;25.60;99.90;;;;;;5314329;27;20241;-55
2021/07/17 11:16:45;;;;;;;16.52;11.02;;;25.60;99.90;;;;;;5314636;27;20244;-51
2021/07/17 11:19:28;;;;;;;15.18;10.82;;;25.50;99.90;;;;;;5315272;27;20213;-57
2021/07/17 11:22:14;;;;;;;18.10;9.73;;;25.70;99.90;;;;;;5313669;27;20241;-56
2021/07/17 11:24:46;;;;;;;13.68;10.05;;;25.80;99.90;;;;;;5315311;27;20214;-53
2021/07/17 11:27:20;;;;;;;17.70;10.73;;;26.00;99.90;;;;;;5315279;27;20239;-49
2021/07/17 11:29:52;;;;;;;14.45;10.20;;;26.00;99.90;;;;;;5313588;27;20198;-58
2021/07/17 11:32:25;;;;;;;13.95;10.00;;;26.10;99.90;;;;;;5314276;27;20692;-51
2021/07/17 11:35:01;;;;;;;16.40;10.30;;;26.00;99.90;;;;;;5313909;27;20241;-57
2021/07/17 11:37:33;;;;;;;14.25;10.73;;;26.00;99.90;;;;;;5313880;27;20240;-48
2021/07/17 11:40:06;;;;;;;15.00;10.93;;;26.10;99.90;;;;;;5313567;27;20206;-53
2021/07/17 11:42:38;;;;;;;16.02;10.23;;;26.20;99.90;;;;;;5279869;27;20241;-57
2021/07/17 11:45:10;;;;;;;14.25;10.40;;;26.40;99.90;;;;;;5279404;27;20203;-57
2021/07/17 11:47:43;;;;;;;15.10;10.15;;;26.50;99.90;;;;;;5296271;27;20230;-56
2021/07/17 11:50:15;;;;;;;15.30;10.48;;;26.50;99.90;;;;;;5314688;27;20548;-56
2021/07/17 11:52:47;;;;;;;15.70;10.45;;;26.40;99.90;;;;;;5313474;27;20231;-60
2021/07/17 11:55:19;;;;;;;11.93;10.02;;;26.40;99.90;;;;;;5313501;27;20225;-59
2021/07/17 11:57:51;;;;;;;13.85;11.30;;;26.40;99.90;;;;;;5307510;27;20241;-57
2021/07/17 12:00:23;;;;;;;16.77;11.65;;;26.40;99.90;;;;;;5313604;27;20195;-60
2021/07/17 12:02:58;;;;;;;17.58;11.93;;;26.50;99.90;;;;;;5316546;27;20217;-59
2021/07/17 12:05:35;;;;;;;16.13;12.20;;;26.30;99.90;;;;;;5309395;27;20195;-59
2021/07/17 12:08:07;;;;;;;18.90;11.32;;;26.20;99.90;;;;;;5325640;27;20233;-52
2021/07/17 12:10:42;;;;;;;15.18;11.10;;;26.30;99.90;;;;;;5324207;27;20272;-51
2021/07/17 12:13:14;;;;;;;12.93;10.85;;;26.20;99.90;;;;;;5328336;27;20198;-45
2021/07/17 12:15:46;;;;;;;14.60;10.98;;;26.10;99.90;;;;;;5318032;27;20193;-46
2021/07/17 12:18:18;;;;;;;19.80;12.30;;;26.10;99.90;;;;;;5326492;27;20426;-45
2021/07/17 12:20:52;;;;;;;18.45;11.65;;;26.20;99.90;;;;;;5296037;27;20199;-55
2021/07/17 12:23:27;;;;;;;17.27;11.27;;;26.40;99.90;;;;;;5295740;27;20203;-58
2021/07/17 12:26:04;;;;;;;18.35;11.77;;;26.20;99.90;;;;;;5313264;27;20266;-52
2021/07/17 12:28:40;;;;;;;18.23;11.77;;;26.20;99.90;;;;;;5322333;27;20195;-54
2021/07/17 12:31:13;;;;;;;16.17;11.20;;;26.40;99.90;;;;;;5318906;27;20282;-49
2021/07/17 12:33:49;;;;;;;17.83;11.43;;;26.40;99.90;;;;;;5316942;27;20194;-47
2021/07/17 12:36:26;;;;;;;15.60;11.50;;;26.40;99.90;;;;;;5317131;27;20689;-51
2021/07/17 12:39:00;;;;;;;19.85;12.25;;;26.10;99.90;;;;;;5309612;27;20199;-57
2021/07/17 12:41:34;;;;;;;17.90;12.98;;;25.80;99.90;;;;;;5312911;27;20199;-59
2021/07/17 12:44:10;;;;;;;17.77;12.63;;;25.80;99.90;;;;;;5317925;27;20638;-55
2021/07/17 12:46:44;;;;;;;17.42;13.38;;;26.20;99.90;;;;;;5334474;27;20221;-57
2021/07/17 12:49:18;;;;;;;19.58;12.98;;;26.40;99.90;;;;;;5333460;27;20197;-51
2021/07/17 12:51:52;;;;;;;17.92;12.25;;;26.60;99.90;;;;;;5315364;27;20624;-56
2021/07/17 12:54:29;;;;;;;16.35;12.55;;;26.70;99.90;;;;;;5326202;27;20195;-52
2021/07/17 12:57:06;;;;;;;19.08;13.10;;;26.70;99.90;;;;;;5326918;27;20194;-51
2021/07/17 12:59:40;;;;;;;16.42;12.10;;;26.70;99.90;;;;;;5317725;27;20194;-52
2021/07/17 13:02:15;;;;;;;18.30;12.52;;;26.60;99.90;;;;;;5311889;27;20234;-56